Time;durP1;ratioP1;P1;durP2;ratioP2;P2;SDS_P1;SDS_P2;PMS_P1;PMS_P2;Temp;Humidity;BMP_temperature;BMP_pressure;BME280_temperature;BME280_humidity;BME280_pressure;Samples;Min_cycle;Max_cycle;Signal;HPM_P1;HPM_P2
2022/12/22 03:26:16;;;;;;;53.87;29.97;;;;;;;3.69;91.04;98510.88;2191111;81;21036;-85
2022/12/22 03:29:17;;;;;;;52.47;31.30;;;;;;;3.72;90.82;98511.39;2190733;81;21031;-85
2022/12/22 03:32:17;;;;;;;52.97;30.93;;;;;;;3.72;90.80;98513.56;2190561;81;20953;-83
2022/12/22 03:35:17;;;;;;;54.90;31.77;;;;;;;3.76;90.79;98513.25;2191013;81;21004;-86
2022/12/22 03:38:18;;;;;;;55.60;30.73;;;;;;;3.77;90.64;98513.72;2190874;81;20968;-86
2022/12/22 03:47:55;;;;;;;47.90;29.87;;;;;;;3.65;90.68;98497.41;2191243;81;21075;-85
2022/12/22 03:50:56;;;;;;;52.37;29.73;;;;;;;3.65;90.80;98501.70;2191478;81;21003;-84
2022/12/22 03:53:56;;;;;;;52.23;31.80;;;;;;;3.65;90.74;98505.56;2191452;81;20940;-85
2022/12/22 03:56:57;;;;;;;47.83;29.23;;;;;;;3.62;90.82;98498.59;2190527;81;21442;-85
2022/12/22 04:00:00;;;;;;;49.17;30.33;;;;;;;3.66;90.98;98494.41;2191064;81;20948;-85
2022/12/22 04:03:00;;;;;;;51.07;29.17;;;;;;;3.68;90.98;98478.16;2191343;81;21008;-85
2022/12/22 04:06:01;;;;;;;46.73;27.77;;;;;;;3.71;90.84;98482.13;2190615;81;21023;-84
2022/12/22 04:09:01;;;;;;;49.57;29.17;;;;;;;3.70;90.84;98480.78;2190420;81;20996;-86
2022/12/22 04:15:20;;;;;;;46.70;27.13;;;;;;;3.64;91.08;98473.72;2189349;81;21347;-85
2022/12/22 04:18:21;;;;;;;47.30;27.87;;;;;;;3.67;91.35;98471.65;2189542;81;21527;-82
2022/12/22 04:21:21;;;;;;;45.93;27.87;;;;;;;3.64;91.15;98464.69;2189357;81;21026;-82
2022/12/22 04:24:22;;;;;;;44.03;25.63;;;;;;;3.62;91.23;98466.34;2189293;81;21352;-85
2022/12/22 04:27:22;;;;;;;48.97;27.57;;;;;;;3.60;91.27;98464.53;2189313;81;21020;-85
2022/12/22 04:30:22;;;;;;;46.00;24.60;;;;;;;3.61;91.31;98464.99;2189584;81;20967;-86
2022/12/22 04:33:25;;;;;;;40.93;26.77;;;;;;;3.61;91.40;98456.84;2189948;81;21379;-84
2022/12/22 04:36:26;;;;;;;42.47;26.40;;;;;;;3.61;91.76;98451.67;2190181;81;21083;-84
2022/12/22 04:39:26;;;;;;;47.17;27.77;;;;;;;3.65;91.69;98454.82;2189986;81;20904;-86
2022/12/22 04:42:26;;;;;;;42.93;25.90;;;;;;;3.68;91.68;98447.17;2189735;81;20967;-85
2022/12/22 04:45:27;;;;;;;42.63;24.73;;;;;;;3.69;91.54;98439.02;2188615;81;21402;-85
2022/12/22 04:48:27;;;;;;;42.13;25.23;;;;;;;3.69;91.75;98436.44;2188743;81;21052;-85
2022/12/22 04:51:28;;;;;;;41.47;25.40;;;;;;;3.69;91.74;98445.47;2188081;81;20966;-82
2022/12/22 04:54:28;;;;;;;44.47;27.13;;;;;;;3.71;92.01;98443.81;2188720;81;20972;-84
2022/12/22 04:57:28;;;;;;;44.83;28.07;;;;;;;3.76;91.87;98443.14;2189193;81;21007;-84
2022/12/22 05:00:29;;;;;;;45.43;28.07;;;;;;;3.75;91.63;98445.67;2188323;81;20932;-84
2022/12/22 05:03:29;;;;;;;43.70;27.07;;;;;;;3.71;91.63;98438.66;2188924;81;21012;-84
2022/12/22 05:06:30;;;;;;;46.47;28.70;;;;;;;3.69;91.40;98435.14;2188587;81;21015;-84
2022/12/22 05:09:30;;;;;;;55.47;34.40;;;;;;;3.60;91.15;98432.27;2188968;81;21008;-85
2022/12/22 05:15:49;;;;;;;47.67;28.03;;;;;;;3.33;91.06;98411.56;2189464;81;20940;-83
2022/12/22 05:18:50;;;;;;;45.67;27.83;;;;;;;3.18;91.39;98420.95;2189051;81;20968;-84
2022/12/22 05:21:50;;;;;;;42.30;26.30;;;;;;;3.06;91.48;98422.70;2188188;81;21316;-83
2022/12/22 05:24:51;;;;;;;40.13;24.73;;;;;;;2.97;91.61;98422.80;2188421;81;21368;-81
2022/12/22 05:27:51;;;;;;;42.27;26.77;;;;;;;2.84;91.39;98422.38;2187716;81;21398;-85
2022/12/22 05:30:52;;;;;;;48.23;28.57;;;;;;;2.68;91.74;98415.33;2187848;81;20969;-85
2022/12/22 05:33:52;;;;;;;43.50;27.77;;;;;;;2.61;92.42;98410.78;2188273;81;20909;-83
2022/12/22 05:36:52;;;;;;;45.37;28.97;;;;;;;2.55;92.97;98409.70;2188580;81;20991;-82
2022/12/22 05:39:53;;;;;;;55.07;33.87;;;;;;;2.52;93.52;98410.88;2189255;81;21008;-83
2022/12/22 05:42:53;;;;;;;66.27;37.83;;;;;;;2.54;94.03;98413.52;2189926;81;20979;-83
2022/12/22 05:45:53;;;;;;;58.60;36.83;;;;;;;2.52;94.15;98413.46;2190077;81;21003;-84
2022/12/22 05:48:54;;;;;;;60.40;38.57;;;;;;;2.48;94.20;98410.30;2189201;81;20947;-80
2022/12/22 05:51:55;;;;;;;62.37;41.03;;;;;;;2.48;94.45;98410.30;2189241;81;20952;-84
2022/12/22 05:54:55;;;;;;;56.03;33.90;;;;;;;2.50;94.94;98417.68;2188368;81;21323;-82
2022/12/22 05:57:55;;;;;;;47.93;32.13;;;;;;;2.54;94.90;98417.38;2188526;81;21335;-83
2022/12/22 06:00:56;;;;;;;50.83;31.33;;;;;;;2.52;94.75;98425.47;2188022;81;20941;-86
2022/12/22 06:03:56;;;;;;;50.47;30.47;;;;;;;2.46;94.83;98424.83;2188125;81;21063;-85
2022/12/22 06:06:56;;;;;;;51.50;29.70;;;;;;;2.43;95.28;98428.58;2187903;81;21578;-83
2022/12/22 06:09:57;;;;;;;48.27;28.67;;;;;;;2.43;95.47;98423.84;2188294;81;21000;-85
2022/12/22 06:12:57;;;;;;;53.00;29.80;;;;;;;2.43;95.78;98426.01;2188372;81;21308;-86
2022/12/22 06:15:57;;;;;;;72.30;39.20;;;;;;;2.42;96.12;98422.08;2187939;81;20971;-82
2022/12/22 06:19:00;;;;;;;81.13;44.80;;;;;;;2.42;95.97;98420.39;2187789;81;20976;-87
2022/12/22 06:22:00;;;;;;;77.83;41.33;;;;;;;2.40;95.82;98422.44;2170708;81;20980;-85
2022/12/22 06:25:00;;;;;;;70.57;38.60;;;;;;;2.37;95.79;98427.06;2187417;81;20975;-86
2022/12/22 06:28:01;;;;;;;67.10;34.40;;;;;;;2.36;95.67;98419.28;2187177;81;20975;-86
2022/12/22 06:31:01;;;;;;;55.23;33.63;;;;;;;2.30;95.57;98410.92;2187438;81;21059;-86
2022/12/22 06:34:02;;;;;;;52.33;28.60;;;;;;;2.27;95.69;98410.80;2187489;81;20956;-86
2022/12/22 06:37:05;;;;;;;46.17;28.37;;;;;;;2.22;95.54;98398.17;2187196;81;21418;-84
2022/12/22 06:40:05;;;;;;;50.80;28.83;;;;;;;2.15;95.73;98389.75;2187402;81;20936;-87
2022/12/22 06:43:08;;;;;;;58.17;32.90;;;;;;;2.15;96.09;98417.66;2187061;81;21058;-86
2022/12/22 06:46:11;;;;;;;58.97;33.43;;;;;;;2.15;97.01;98440.84;2169992;81;21000;-86
2022/12/22 06:49:11;;;;;;;53.87;32.17;;;;;;;2.22;97.26;98444.52;2187043;81;21048;-84
2022/12/22 06:52:11;;;;;;;56.10;33.73;;;;;;;2.31;97.12;98437.14;2187949;81;21040;-85
2022/12/22 06:55:12;;;;;;;56.33;32.13;;;;;;;2.39;96.83;98435.73;2186817;81;21407;-84
2022/12/22 06:58:12;;;;;;;54.67;31.93;;;;;;;2.51;97.09;98425.00;2187274;81;21028;-85
2022/12/22 07:01:13;;;;;;;59.67;30.60;;;;;;;2.63;96.67;98427.17;2186738;81;21008;-85
2022/12/22 07:04:19;;;;;;;54.50;29.73;;;;;;;2.70;96.14;98432.61;2169893;81;20968;-84
2022/12/22 07:07:15;;;;;;;52.10;30.77;;;;;;;2.77;95.88;98439.73;2179292;81;21453;-85
2022/12/22 07:10:16;;;;;;;55.80;30.20;;;;;;;2.83;95.79;98427.06;2170848;81;20929;-83
2022/12/22 07:13:19;;;;;;;61.77;33.17;;;;;;;2.88;95.69;98423.36;2170527;81;20978;-85
2022/12/22 07:16:20;;;;;;;59.70;33.47;;;;;;;2.92;95.66;98420.06;2170491;81;20976;-83
2022/12/22 07:19:22;;;;;;;58.40;36.00;;;;;;;2.95;95.52;98422.75;2159952;82;20960;-85
2022/12/22 07:22:22;;;;;;;71.73;38.40;;;;;;;2.98;95.43;98409.09;2170777;81;20932;-85
2022/12/22 07:25:23;;;;;;;65.37;35.83;;;;;;;3.03;95.55;98402.39;2170617;81;21735;-85
2022/12/22 07:28:23;;;;;;;58.77;33.63;;;;;;;3.05;95.52;98399.03;2171092;81;20989;-85
2022/12/22 07:31:24;;;;;;;53.73;32.67;;;;;;;3.11;95.50;98387.64;2170869;81;20929;-86
2022/12/22 07:34:24;;;;;;;58.43;32.37;;;;;;;3.15;95.11;98378.30;2170659;81;20902;-87
2022/12/22 07:37:24;;;;;;;55.67;31.43;;;;;;;3.18;95.32;98381.86;2170202;81;21059;-85
2022/12/22 07:40:25;;;;;;;58.63;33.13;;;;;;;3.20;95.59;98387.95;2170659;81;20922;-85
2022/12/22 07:43:30;;;;;;;69.30;36.97;;;;;;;3.29;95.82;98409.71;2131182;83;20968;-85
2022/12/22 07:46:31;;;;;;;66.27;36.10;;;;;;;3.20;95.92;98424.05;2168536;82;21029;-84
2022/12/22 07:52:50;;;;;;;54.60;33.43;;;;;;;3.36;95.73;98407.38;2171095;82;20952;-85
2022/12/22 07:55:53;;;;;;;57.10;32.67;;;;;;;3.49;95.42;98420.31;2171238;81;21356;-85
2022/12/22 07:58:54;;;;;;;54.33;31.37;;;;;;;3.55;95.34;98402.44;2171639;81;20992;-86
2022/12/22 08:01:54;;;;;;;48.13;28.73;;;;;;;3.66;95.30;98404.08;2171783;81;20969;-85
2022/12/22 08:04:54;;;;;;;53.40;30.57;;;;;;;3.76;95.35;98400.54;2171512;81;21462;-84
2022/12/22 08:07:55;;;;;;;50.97;29.43;;;;;;;3.86;95.10;98400.83;2180426;81;21419;-85
2022/12/22 08:10:55;;;;;;;52.83;31.40;;;;;;;3.88;95.13;98401.34;2187933;81;21011;-85
2022/12/22 08:13:56;;;;;;;47.20;29.23;;;;;;;3.95;94.99;98389.48;2187766;81;21350;-86
2022/12/22 08:16:56;;;;;;;53.13;30.23;;;;;;;3.97;94.52;98391.29;2187638;81;21379;-86
2022/12/22 08:20:00;;;;;;;45.20;28.17;;;;;;;4.06;94.57;98386.81;2187937;81;20995;-86
2022/12/22 08:23:00;;;;;;;46.87;28.43;;;;;;;4.15;93.63;98381.50;2187662;81;21011;-85
2022/12/22 08:26:00;;;;;;;48.90;29.17;;;;;;;4.20;93.48;98380.77;2188322;81;21006;-84
2022/12/22 08:29:01;;;;;;;54.67;33.27;;;;;;;4.22;93.39;98379.98;2188417;81;21016;-85
2022/12/22 08:32:01;;;;;;;63.80;39.43;;;;;;;4.24;93.59;98379.61;2188033;81;20952;-84
2022/12/22 08:35:02;;;;;;;53.43;32.73;;;;;;;4.27;93.85;98374.53;2188311;81;20908;-86
2022/12/22 08:38:02;;;;;;;47.77;30.50;;;;;;;4.36;94.38;98382.99;2187532;81;21008;-86
2022/12/22 08:41:02;;;;;;;54.33;32.93;;;;;;;4.35;94.64;98365.33;2187317;81;20928;-86
2022/12/22 08:44:03;;;;;;;51.40;32.27;;;;;;;4.44;94.41;98370.75;2187388;81;20959;-86
2022/12/22 08:47:03;;;;;;;55.07;32.40;;;;;;;4.59;94.32;98361.25;2188052;81;20952;-86
2022/12/22 08:50:04;;;;;;;51.13;32.87;;;;;;;4.80;94.37;98359.25;2188068;81;21352;-85
2022/12/22 08:53:04;;;;;;;55.03;34.03;;;;;;;4.96;94.05;98358.36;2187148;81;21462;-85
2022/12/22 08:56:04;;;;;;;56.80;35.97;;;;;;;5.06;93.52;98364.23;2187456;81;20940;-83
2022/12/22 08:59:06;;;;;;;54.53;34.93;;;;;;;5.17;93.36;98363.20;2187663;81;20944;-85
2022/12/22 09:02:05;;;;;;;54.43;35.63;;;;;;;5.36;92.81;98362.44;2187501;81;20981;-85
2022/12/22 09:05:06;;;;;;;48.37;32.03;;;;;;;5.49;92.38;98348.50;2186746;81;21340;-82
2022/12/22 09:08:06;;;;;;;39.27;27.23;;;;;;;5.61;92.22;98346.20;2187284;81;21015;-84
2022/12/22 09:11:06;;;;;;;46.47;30.40;;;;;;;5.75;92.02;98337.91;2187145;81;20995;-84
2022/12/22 09:14:07;;;;;;;41.83;27.87;;;;;;;5.92;91.53;98336.14;2187222;81;20941;-84
2022/12/22 09:17:07;;;;;;;40.17;28.03;;;;;;;5.94;91.15;98335.76;2187247;81;21390;-83
2022/12/22 09:20:08;;;;;;;46.23;31.50;;;;;;;5.92;91.12;98325.78;2187133;81;21004;-86
2022/12/22 09:23:08;;;;;;;38.67;28.87;;;;;;;5.95;91.41;98322.84;2186697;81;20928;-85
2022/12/22 09:26:08;;;;;;;37.60;26.60;;;;;;;6.00;90.88;98321.22;2188482;81;20976;-84
2022/12/22 09:29:09;;;;;;;40.00;28.60;;;;;;;6.01;90.79;98315.62;2187253;81;20928;-85
2022/12/22 09:32:09;;;;;;;42.20;25.57;;;;;;;6.01;90.64;98320.38;2186954;81;21000;-86
2022/12/22 09:35:12;;;;;;;34.80;24.67;;;;;;;6.04;90.84;98313.09;2169452;81;20979;-85
2022/12/22 09:38:12;;;;;;;35.57;24.50;;;;;;;6.03;90.81;98312.22;2186415;81;21020;-85
2022/12/22 09:41:12;;;;;;;31.53;23.10;;;;;;;6.03;90.72;98308.33;2186261;81;20916;-86
2022/12/22 09:44:13;;;;;;;34.90;23.50;;;;;;;6.01;90.26;98310.44;2186034;81;21019;-86
2022/12/22 09:47:13;;;;;;;35.60;24.13;;;;;;;5.92;89.93;98296.00;2186251;81;21359;-88
2022/12/22 09:50:14;;;;;;;34.90;23.73;;;;;;;5.80;89.82;98290.09;2186940;81;21012;-87
2022/12/22 09:53:14;;;;;;;43.97;25.73;;;;;;;5.70;90.24;98283.84;2186960;81;21356;-86
2022/12/22 09:56:15;;;;;;;34.70;25.10;;;;;;;5.66;90.50;98277.27;2187456;81;21288;-84
2022/12/22 09:59:15;;;;;;;37.60;25.33;;;;;;;5.62;90.25;98268.98;2187565;81;21374;-85
2022/12/22 10:02:15;;;;;;;37.17;24.83;;;;;;;5.52;90.45;98259.27;2187228;81;20986;-85
2022/12/22 10:05:16;;;;;;;33.67;23.70;;;;;;;5.49;90.45;98256.61;2187590;81;20944;-85
2022/12/22 10:08:16;;;;;;;33.83;23.60;;;;;;;5.43;90.78;98242.69;2178234;81;21079;-85
2022/12/22 10:11:17;;;;;;;30.63;23.40;;;;;;;5.48;91.00;98247.09;2170349;81;20999;-85
2022/12/22 10:14:17;;;;;;;34.20;25.17;;;;;;;5.51;91.09;98251.91;2170102;81;21004;-85
2022/12/22 10:17:17;;;;;;;34.97;24.97;;;;;;;5.54;91.27;98243.34;2170107;81;21383;-86
2022/12/22 10:20:18;;;;;;;31.03;23.40;;;;;;;5.59;91.34;98240.02;2170315;81;21025;-86
2022/12/22 10:23:18;;;;;;;31.53;23.90;;;;;;;5.64;91.31;98240.98;2170108;81;21621;-85
2022/12/22 10:26:18;;;;;;;36.13;24.40;;;;;;;5.70;91.31;98239.83;2169644;81;20992;-87
2022/12/22 10:29:19;;;;;;;38.73;25.13;;;;;;;5.73;91.20;98233.41;2169405;81;20961;-86
2022/12/22 10:32:20;;;;;;;34.93;24.20;;;;;;;5.75;91.06;98225.25;2169516;81;20960;-84
2022/12/22 10:35:20;;;;;;;32.93;22.87;;;;;;;5.74;91.15;98217.03;2169660;82;20945;-82
2022/12/22 10:38:20;;;;;;;32.33;22.37;;;;;;;5.79;91.26;98214.96;2170348;81;20977;-86
2022/12/22 10:41:20;;;;;;;30.57;21.70;;;;;;;5.81;91.25;98210.69;2170272;81;20965;-85
2022/12/22 10:44:21;;;;;;;29.60;21.87;;;;;;;5.81;91.30;98212.85;2170581;81;21403;-86
2022/12/22 10:47:22;;;;;;;35.43;22.60;;;;;;;5.84;91.34;98206.44;2170802;81;20902;-85
2022/12/22 10:50:22;;;;;;;37.87;24.03;;;;;;;5.87;91.02;98200.45;2171038;82;20931;-86
2022/12/22 10:53:22;;;;;;;36.67;24.70;;;;;;;5.88;90.96;98191.84;2171333;81;20965;-85
2022/12/22 10:56:23;;;;;;;37.40;26.30;;;;;;;5.90;90.81;98188.89;2170856;81;20941;-85
2022/12/22 10:59:23;;;;;;;40.70;26.83;;;;;;;5.90;90.74;98196.66;2171233;82;21365;-85
2022/12/22 11:02:23;;;;;;;52.40;30.90;;;;;;;5.88;90.44;98194.42;2171827;81;20956;-85
2022/12/22 11:05:24;;;;;;;47.60;32.57;;;;;;;5.88;90.35;98185.36;2172048;82;21057;-85
2022/12/22 11:08:25;;;;;;;51.43;32.00;;;;;;;5.88;90.08;98182.77;2179275;81;20976;-86
2022/12/22 11:11:25;;;;;;;60.50;37.30;;;;;;;5.87;89.96;98174.13;2187529;81;21000;-85
2022/12/22 11:14:25;;;;;;;60.73;37.73;;;;;;;5.89;89.86;98176.36;2188229;81;20932;-85
2022/12/22 11:17:26;;;;;;;64.77;41.73;;;;;;;5.87;89.20;98168.94;2188702;81;20924;-86
2022/12/22 11:20:26;;;;;;;66.77;42.33;;;;;;;5.75;88.50;98168.28;2188956;81;20964;-85
2022/12/22 11:23:27;;;;;;;70.00;43.43;;;;;;;5.67;88.71;98161.20;2188161;81;20932;-85
2022/12/22 11:26:27;;;;;;;68.13;44.50;;;;;;;5.64;88.86;98170.20;2187410;81;21389;-86
2022/12/22 11:29:27;;;;;;;68.10;42.97;;;;;;;5.60;88.84;98153.73;2187267;81;20940;-86
2022/12/22 11:32:28;;;;;;;70.90;44.97;;;;;;;5.62;89.16;98145.58;2187480;81;20993;-86
2022/12/22 11:35:28;;;;;;;67.70;41.70;;;;;;;5.66;89.15;98134.44;2187306;81;20992;-85
2022/12/22 11:38:29;;;;;;;69.33;41.67;;;;;;;5.69;88.74;98141.39;2187174;81;20976;-85
2022/12/22 11:41:30;;;;;;;64.77;40.17;;;;;;;5.71;89.03;98137.98;2188398;81;20940;-84
2022/12/22 11:44:30;;;;;;;63.07;40.00;;;;;;;5.78;88.93;98138.98;2188118;81;20955;-85
2022/12/22 11:47:31;;;;;;;63.07;40.03;;;;;;;5.74;88.71;98122.94;2188693;81;20967;-83
2022/12/22 11:50:31;;;;;;;56.33;37.33;;;;;;;5.73;88.74;98127.23;2190057;81;20975;-84
2022/12/22 11:53:32;;;;;;;60.93;37.90;;;;;;;5.73;88.62;98122.48;2190207;81;20955;-84
2022/12/22 11:56:32;;;;;;;57.90;35.87;;;;;;;5.75;88.95;98123.39;2188653;81;20952;-85
2022/12/22 11:59:32;;;;;;;59.17;36.17;;;;;;;5.79;88.82;98130.80;2187940;81;20929;-84
2022/12/22 12:02:33;;;;;;;54.93;33.93;;;;;;;5.83;88.82;98119.64;2189521;81;21337;-85
2022/12/22 12:05:34;;;;;;;56.17;34.80;;;;;;;5.89;88.83;98114.19;2188518;81;20964;-84
2022/12/22 12:08:34;;;;;;;54.97;33.10;;;;;;;5.94;88.77;98106.50;2181370;81;21075;-85
2022/12/22 12:11:34;;;;;;;54.83;33.33;;;;;;;5.99;88.64;98097.97;2172762;81;20933;-84
2022/12/22 12:14:34;;;;;;;57.43;33.23;;;;;;;6.02;88.23;98091.97;2171872;81;20992;-85
2022/12/22 12:17:35;;;;;;;55.27;34.40;;;;;;;6.05;88.26;98086.84;2171391;81;20937;-86
2022/12/22 12:20:35;;;;;;;50.03;32.27;;;;;;;6.09;87.94;98090.39;2171568;81;21008;-83
2022/12/22 12:23:36;;;;;;;54.70;34.77;;;;;;;6.08;87.80;98086.93;2171074;81;20972;-85
2022/12/22 12:26:36;;;;;;;54.33;33.93;;;;;;;6.10;87.74;98087.83;2171255;81;21435;-85
2022/12/22 12:29:37;;;;;;;52.07;32.90;;;;;;;6.10;87.72;98085.23;2171666;82;20956;-85
2022/12/22 12:32:37;;;;;;;51.47;34.07;;;;;;;6.13;87.74;98081.41;2172188;82;21007;-82
2022/12/22 12:35:37;;;;;;;58.40;35.30;;;;;;;6.13;87.43;98075.34;2171198;81;20944;-81
2022/12/22 12:38:38;;;;;;;60.20;35.43;;;;;;;6.14;87.60;98084.45;2171224;81;20972;-82
2022/12/22 12:41:41;;;;;;;53.97;33.57;;;;;;;6.14;87.77;98068.90;2171782;81;20940;-83
2022/12/22 12:44:41;;;;;;;51.57;30.30;;;;;;;6.14;87.67;98067.60;2171823;81;21380;-84
2022/12/22 12:47:42;;;;;;;44.23;28.47;;;;;;;6.11;87.51;98063.66;2171459;81;20937;-85
2022/12/22 12:50:42;;;;;;;45.13;28.77;;;;;;;6.10;87.82;98066.23;2171243;81;20997;-85
2022/12/22 12:53:42;;;;;;;40.37;25.37;;;;;;;6.14;88.02;98054.64;2171099;81;20948;-84
2022/12/22 12:56:43;;;;;;;33.50;21.70;;;;;;;6.26;88.13;98061.33;2171213;82;20936;-80
2022/12/22 12:59:43;;;;;;;42.33;24.20;;;;;;;6.41;88.20;98062.41;2171166;81;20992;-84
2022/12/22 13:02:44;;;;;;;34.47;23.07;;;;;;;6.54;88.00;98060.03;2170185;81;20944;-83
2022/12/22 13:05:44;;;;;;;36.13;22.63;;;;;;;6.60;87.74;98055.36;2170831;81;21422;-84
2022/12/22 13:08:44;;;;;;;39.70;23.97;;;;;;;6.57;87.41;98056.19;2169781;81;20996;-83
2022/12/22 13:11:45;;;;;;;29.60;19.60;;;;;;;6.53;87.44;98062.61;2170113;81;20936;-84
2022/12/22 13:14:45;;;;;;;32.03;19.20;;;;;;;6.45;87.52;98052.55;2170280;81;21379;-84
2022/12/22 13:17:46;;;;;;;37.67;20.33;;;;;;;6.32;87.50;98057.53;2170248;81;20944;-83
2022/12/22 13:20:46;;;;;;;42.30;23.03;;;;;;;6.19;87.44;98056.02;2170554;82;20988;-83
2022/12/22 13:23:46;;;;;;;42.03;23.27;;;;;;;6.02;87.26;98049.22;2169225;81;21363;-83
2022/12/22 13:26:47;;;;;;;41.57;24.00;;;;;;;5.86;87.25;98049.77;2169121;81;20925;-84
2022/12/22 13:29:47;;;;;;;47.57;25.97;;;;;;;5.70;87.16;98049.50;2168686;82;21328;-81
2022/12/22 13:32:48;;;;;;;43.97;24.77;;;;;;;5.54;87.17;98043.59;2169454;81;20909;-84
2022/12/22 13:35:48;;;;;;;41.90;23.77;;;;;;;5.38;87.47;98053.20;2169638;82;21024;-84
2022/12/22 13:38:48;;;;;;;41.77;25.37;;;;;;;5.24;87.85;98054.22;2170154;81;20952;-83
2022/12/22 13:41:49;;;;;;;36.03;23.23;;;;;;;5.13;88.01;98055.27;2170922;81;20973;-85
2022/12/22 13:44:49;;;;;;;55.80;26.77;;;;;;;5.02;88.36;98049.00;2171914;81;21004;-81
2022/12/22 13:47:50;;;;;;;38.33;23.77;;;;;;;4.86;88.42;98054.69;2171510;81;20936;-84
2022/12/22 13:50:50;;;;;;;36.53;24.20;;;;;;;4.68;88.81;98046.11;2172024;81;20941;-82
2022/12/22 13:53:50;;;;;;;37.40;24.63;;;;;;;4.60;89.25;98051.95;2170917;81;20936;-81
2022/12/22 13:56:51;;;;;;;38.50;23.57;;;;;;;4.53;89.24;98044.89;2170607;81;20964;-81
2022/12/22 13:59:51;;;;;;;36.60;24.23;;;;;;;4.40;89.22;98038.16;2170676;81;20969;-81
2022/12/22 14:02:52;;;;;;;37.57;23.43;;;;;;;4.25;89.09;98044.22;2170803;81;20945;-82
2022/12/22 14:05:52;;;;;;;43.37;24.53;;;;;;;4.16;89.44;98041.42;2170744;81;21774;-82
2022/12/22 14:08:52;;;;;;;37.93;23.97;;;;;;;4.05;89.81;98032.54;2169910;81;21008;-82
2022/12/22 14:11:53;;;;;;;35.73;24.33;;;;;;;4.02;90.43;98041.50;2169766;81;20977;-82
2022/12/22 14:14:53;;;;;;;42.77;26.20;;;;;;;4.00;90.49;98036.30;2170316;82;21325;-83
2022/12/22 14:17:54;;;;;;;44.10;25.90;;;;;;;3.89;90.58;98026.55;2169847;81;21016;-82
2022/12/22 14:20:54;;;;;;;50.83;28.60;;;;;;;3.79;90.60;98024.15;2169572;82;21678;-82
2022/12/22 14:23:54;;;;;;;45.97;26.53;;;;;;;3.72;91.36;98016.67;2169541;81;21071;-81
2022/12/22 14:26:55;;;;;;;48.23;28.37;;;;;;;3.73;91.79;98024.00;2169384;81;20933;-82
2022/12/22 14:29:55;;;;;;;54.77;27.83;;;;;;;3.75;92.54;98019.33;2169648;81;21442;-82
2022/12/22 14:32:56;;;;;;;41.23;26.63;;;;;;;3.74;92.39;98015.00;2169405;81;20979;-82
2022/12/22 14:35:56;;;;;;;48.10;25.87;;;;;;;3.68;92.39;98010.97;2169502;82;21455;-81
2022/12/22 14:38:56;;;;;;;45.30;26.80;;;;;;;3.61;92.29;98012.94;2170924;81;21016;-84
2022/12/22 14:41:57;;;;;;;44.37;25.93;;;;;;;3.57;92.79;98022.73;2172206;81;20929;-83
2022/12/22 14:44:58;;;;;;;46.87;27.10;;;;;;;3.56;92.97;98014.95;2171976;81;21400;-83
2022/12/22 14:47:58;;;;;;;45.60;26.40;;;;;;;3.51;93.22;98013.12;2171890;81;20964;-83
2022/12/22 14:50:58;;;;;;;39.30;25.13;;;;;;;3.39;93.14;98006.31;2171998;81;20941;-82
2022/12/22 14:53:58;;;;;;;41.37;25.43;;;;;;;3.28;92.89;98000.41;2171767;82;21487;-83
2022/12/22 14:56:59;;;;;;;42.43;25.37;;;;;;;3.16;92.75;97991.52;2171533;82;20934;-82
2022/12/22 14:59:59;;;;;;;42.70;25.63;;;;;;;3.10;92.79;97981.03;2171040;82;20991;-81
2022/12/22 15:03:00;;;;;;;38.50;24.90;;;;;;;3.04;93.13;97984.73;2171614;82;20996;-82
2022/12/22 15:06:00;;;;;;;40.13;26.20;;;;;;;3.01;93.31;97997.54;2172042;81;20992;-82
2022/12/22 15:09:00;;;;;;;39.30;25.77;;;;;;;2.94;93.82;97987.89;2171402;81;21052;-81
2022/12/22 15:12:01;;;;;;;38.23;25.23;;;;;;;2.85;93.29;97991.50;2171517;81;20965;-83
2022/12/22 15:15:01;;;;;;;38.20;24.07;;;;;;;2.77;93.57;98005.87;2171902;81;21451;-83
2022/12/22 15:18:02;;;;;;;41.13;24.20;;;;;;;2.79;94.59;98006.79;2172440;81;20957;-83
2022/12/22 15:21:02;;;;;;;39.43;24.60;;;;;;;2.84;95.24;98007.80;2172282;81;20938;-83
2022/12/22 15:24:03;;;;;;;38.97;23.77;;;;;;;2.99;96.67;98000.49;2172301;82;21402;-84
2022/12/22 15:27:03;;;;;;;39.57;23.03;;;;;;;3.07;96.26;98000.29;2171837;81;20964;-82
2022/12/22 15:30:03;;;;;;;41.00;22.43;;;;;;;3.09;96.87;97986.15;2171594;81;20901;-82
2022/12/22 15:33:03;;;;;;;39.90;21.63;;;;;;;3.32;99.53;97981.19;2171697;82;21015;-83
2022/12/22 15:36:04;;;;;;;32.13;18.67;;;;;;;3.51;99.34;97968.38;2171285;81;20928;-83
2022/12/22 15:39:04;;;;;;;34.07;18.87;;;;;;;3.69;100.00;97957.64;2171016;81;21048;-83
2022/12/22 15:42:05;;;;;;;31.67;18.50;;;;;;;3.96;100.00;97955.72;2171249;81;21374;-81
2022/12/22 15:45:05;;;;;;;29.73;18.30;;;;;;;4.20;100.00;97963.58;2172312;81;21011;-82
2022/12/22 15:48:05;;;;;;;32.87;17.63;;;;;;;4.36;100.00;97969.58;2171745;82;20988;-82
2022/12/22 15:51:06;;;;;;;32.17;18.30;;;;;;;4.43;99.37;97963.70;2171745;81;20929;-83
2022/12/22 15:54:06;;;;;;;30.00;17.77;;;;;;;4.46;98.68;97949.14;2171752;81;20969;-83
2022/12/22 15:57:07;;;;;;;33.03;18.40;;;;;;;4.46;98.57;97954.73;2171711;82;20972;-82
2022/12/22 16:00:07;;;;;;;31.90;17.90;;;;;;;4.50;98.61;97956.54;2171883;81;20981;-82
2022/12/22 16:03:07;;;;;;;33.07;19.40;;;;;;;4.51;98.51;97947.07;2171584;81;20937;-83
2022/12/22 16:06:08;;;;;;;37.97;19.00;;;;;;;4.51;98.00;97946.66;2171494;81;20996;-83
2022/12/22 16:09:09;;;;;;;32.20;18.07;;;;;;;4.52;98.04;97955.28;2171996;81;21043;-83
2022/12/22 16:12:09;;;;;;;33.47;18.60;;;;;;;4.52;98.26;97947.52;2172589;81;20980;-82
2022/12/22 16:15:09;;;;;;;33.50;18.50;;;;;;;4.52;97.79;97943.65;2172841;81;20988;-83
2022/12/22 16:18:09;;;;;;;31.57;17.93;;;;;;;4.51;97.79;97944.48;2173088;81;21293;-83
2022/12/22 16:21:10;;;;;;;29.87;17.13;;;;;;;4.53;97.82;97936.34;2172968;81;20977;-82
2022/12/22 16:24:10;;;;;;;34.03;17.63;;;;;;;4.54;97.76;97937.67;2172210;81;20977;-83
2022/12/22 16:27:11;;;;;;;31.73;19.33;;;;;;;4.58;97.81;97936.02;2172213;81;20944;-83
2022/12/22 16:30:11;;;;;;;30.33;18.47;;;;;;;4.61;97.79;97924.03;2172168;81;20929;-83
2022/12/22 16:33:11;;;;;;;31.57;18.73;;;;;;;4.59;97.43;97933.89;2172978;82;20984;-83
2022/12/22 16:36:12;;;;;;;28.67;18.60;;;;;;;4.59;98.10;97954.15;2172703;81;21028;-81
2022/12/22 16:39:12;;;;;;;30.00;17.13;;;;;;;4.65;97.69;97962.45;2172654;81;20977;-83
2022/12/22 16:42:13;;;;;;;36.83;19.33;;;;;;;4.63;97.08;97958.96;2172113;81;21301;-83
2022/12/22 16:45:13;;;;;;;31.43;18.63;;;;;;;4.59;96.86;97968.36;2172114;81;21020;-82
2022/12/22 16:48:13;;;;;;;36.13;19.60;;;;;;;4.58;96.90;97965.33;2172033;81;20984;-83
2022/12/22 16:51:14;;;;;;;38.03;19.87;;;;;;;4.59;96.89;97968.78;2172833;81;21001;-83
2022/12/22 16:54:14;;;;;;;32.67;19.63;;;;;;;4.59;96.66;97968.78;2172622;81;21008;-82
2022/12/22 16:57:15;;;;;;;36.03;19.93;;;;;;;4.57;96.34;97958.83;2173274;81;21330;-84
2022/12/22 17:00:15;;;;;;;35.60;20.50;;;;;;;4.59;96.62;97958.45;2172802;82;20989;-82
2022/12/22 17:03:15;;;;;;;36.37;20.63;;;;;;;4.60;96.20;97951.14;2173178;81;20961;-83
2022/12/22 17:06:17;;;;;;;34.10;17.90;;;;;;;4.63;96.27;97962.84;2173601;81;21020;-84
2022/12/22 17:09:18;;;;;;;34.63;20.13;;;;;;;4.64;96.39;97956.83;2178136;81;21039;-84
2022/12/22 17:12:18;;;;;;;33.70;19.57;;;;;;;4.66;96.15;97952.56;2190293;81;20941;-83
2022/12/22 17:15:19;;;;;;;38.60;21.73;;;;;;;4.70;95.92;97951.36;2190247;81;20980;-83
2022/12/22 17:18:19;;;;;;;39.37;21.03;;;;;;;4.74;95.67;97949.71;2189860;81;20936;-84
2022/12/22 17:21:20;;;;;;;35.47;19.73;;;;;;;4.78;95.65;97951.09;2189891;81;21007;-82
2022/12/22 17:24:20;;;;;;;34.07;18.63;;;;;;;4.84;97.79;97946.47;2188906;81;20983;-83
2022/12/22 17:27:20;;;;;;;35.63;20.73;;;;;;;7.82;100.00;97935.71;2189971;81;20893;-84
2022/12/22 17:30:21;;;;;;;34.73;21.17;;;;;;;7.73;89.02;97930.41;2189770;81;20980;-83
2022/12/22 17:33:21;;;;;;;32.20;19.07;;;;;;;6.96;88.24;97927.48;2189512;81;20992;-84
2022/12/22 17:36:21;;;;;;;31.07;17.57;;;;;;;6.45;88.29;97939.77;2189385;81;20964;-83
2022/12/22 17:39:22;;;;;;;29.70;17.93;;;;;;;6.05;89.02;97932.27;2189685;81;21694;-85